createdAt,value
2023-04-19T00:00:19.295Z,0.51
2023-04-19T00:01:19.339Z,0.51
2023-04-19T00:02:19.546Z,0.51
2023-04-19T00:03:19.556Z,0.50
2023-04-19T00:04:19.622Z,0.51
2023-04-19T00:05:19.486Z,0.50
2023-04-19T00:06:19.459Z,0.52
2023-04-19T00:07:19.494Z,0.52
2023-04-19T00:08:19.516Z,0.51
2023-04-19T00:09:19.578Z,0.51
2023-04-19T00:10:19.636Z,0.51
2023-04-19T00:11:19.709Z,0.50
2023-04-19T00:12:19.803Z,0.51
2023-04-19T00:13:19.896Z,0.51
2023-04-19T00:14:19.947Z,0.51
2023-04-19T00:15:20.011Z,0.52
2023-04-19T00:16:20.110Z,0.50
2023-04-19T00:17:20.164Z,0.51
2023-04-19T00:18:20.258Z,0.52
2023-04-19T00:19:20.327Z,0.52
2023-04-19T00:20:20.421Z,0.51
2023-04-19T00:21:20.477Z,0.52
2023-04-19T00:22:20.556Z,0.51
2023-04-19T00:23:20.636Z,0.51
2023-04-19T00:24:20.710Z,0.51
2023-04-19T00:25:20.781Z,0.51
2023-04-19T00:26:20.867Z,0.51
2023-04-19T00:27:20.924Z,0.51
2023-04-19T00:28:21.019Z,0.51
2023-04-19T00:29:21.041Z,0.51
2023-04-19T00:30:21.032Z,0.51
2023-04-19T00:31:21.075Z,0.51
2023-04-19T00:32:21.060Z,0.51
2023-04-19T00:33:21.078Z,0.51
2023-04-19T00:34:21.097Z,0.50
2023-04-19T00:35:21.109Z,0.51
2023-04-19T00:36:21.137Z,0.50
2023-04-19T00:37:21.169Z,0.51
2023-04-19T00:38:21.181Z,0.51
2023-04-19T00:39:21.211Z,0.51
2023-04-19T00:40:21.229Z,0.51
2023-04-19T00:41:21.257Z,0.52
2023-04-19T00:42:21.272Z,0.51
2023-04-19T00:43:21.293Z,0.51
2023-04-19T00:44:21.324Z,0.50
2023-04-19T00:45:21.344Z,0.52
2023-04-19T00:46:21.382Z,0.51
2023-04-19T00:47:21.403Z,0.51
2023-04-19T00:48:21.475Z,0.51
2023-04-19T00:49:21.551Z,0.51
2023-04-19T00:50:21.632Z,0.51
2023-04-19T00:51:21.713Z,0.51
2023-04-19T00:52:21.767Z,0.51
2023-04-19T00:53:21.852Z,0.51
2023-04-19T00:54:21.919Z,0.52
2023-04-19T00:55:22.002Z,0.51
2023-04-19T00:56:22.083Z,0.51
2023-04-19T00:57:22.185Z,0.52
2023-04-19T00:58:22.254Z,0.52
2023-04-19T00:59:22.320Z,0.51
2023-04-19T01:00:22.414Z,0.51
2023-04-19T01:01:22.513Z,0.51
2023-04-19T01:02:22.664Z,0.52
2023-04-19T01:03:22.890Z,0.51
2023-04-19T01:04:22.797Z,0.51
2023-04-19T01:05:22.721Z,0.51
2023-04-19T01:06:22.749Z,0.52
2023-04-19T01:07:22.754Z,0.52
2023-04-19T01:08:22.804Z,0.51
2023-04-19T01:09:22.818Z,0.52
2023-04-19T01:10:22.819Z,0.51
2023-04-19T01:11:22.848Z,0.52
2023-04-19T01:12:22.870Z,0.52
2023-04-19T01:13:22.904Z,0.50
2023-04-19T01:14:22.927Z,0.51
2023-04-19T01:15:22.952Z,0.51
2023-04-19T01:16:23.032Z,0.51
2023-04-19T01:17:23.007Z,0.51
2023-04-19T01:18:23.078Z,0.51
2023-04-19T01:19:23.095Z,0.51
2023-04-19T01:20:23.118Z,0.52
2023-04-19T01:21:23.136Z,0.52
2023-04-19T01:22:23.195Z,0.51
2023-04-19T01:23:23.200Z,0.51
2023-04-19T01:24:23.210Z,0.51
2023-04-19T01:25:23.232Z,0.51
2023-04-19T01:26:23.236Z,0.51
2023-04-19T01:27:23.260Z,0.50
2023-04-19T01:28:23.316Z,0.51
2023-04-19T01:29:23.414Z,0.51
2023-04-19T01:30:23.460Z,0.51
2023-04-19T01:31:24.268Z,0.50
2023-04-19T01:32:23.676Z,0.51
2023-04-19T01:33:23.705Z,0.51
2023-04-19T01:34:23.769Z,0.51
2023-04-19T01:35:23.843Z,0.51
2023-04-19T01:36:23.922Z,0.51
2023-04-19T01:37:23.971Z,0.52
2023-04-19T01:38:24.058Z,0.51
2023-04-19T01:39:24.125Z,0.52
2023-04-19T01:40:24.200Z,0.52
2023-04-19T01:41:24.286Z,0.51
2023-04-19T01:42:24.348Z,0.51
2023-04-19T01:43:24.440Z,0.51
2023-04-19T01:44:24.501Z,0.52
2023-04-19T01:45:24.559Z,0.51
2023-04-19T01:46:24.665Z,0.52
2023-04-19T01:47:24.688Z,0.52
2023-04-19T01:48:24.684Z,0.52
2023-04-19T01:49:24.703Z,0.52
2023-04-19T01:50:24.726Z,0.52
2023-04-19T01:51:24.733Z,0.53
2023-04-19T01:52:24.758Z,0.52
2023-04-19T01:53:24.790Z,0.53
2023-04-19T01:54:24.814Z,0.53
2023-04-19T01:55:24.829Z,0.53
2023-04-19T01:56:24.861Z,0.53
2023-04-19T01:57:24.908Z,0.52
2023-04-19T01:58:24.921Z,0.51
2023-04-19T01:59:24.945Z,0.53
2023-04-19T02:00:24.965Z,0.52
2023-04-19T02:01:25.112Z,0.53
2023-04-19T02:02:25.192Z,0.51
2023-04-19T02:03:25.287Z,0.53
2023-04-19T02:04:25.092Z,0.51
2023-04-19T02:05:25.084Z,0.51
2023-04-19T02:06:25.116Z,0.52
2023-04-19T02:07:25.186Z,0.53
2023-04-19T02:08:25.283Z,0.52
2023-04-19T02:09:25.327Z,0.52
2023-04-19T02:10:25.400Z,0.52
2023-04-19T02:11:25.472Z,0.52
2023-04-19T02:12:25.546Z,0.50
2023-04-19T02:13:25.608Z,0.53
2023-04-19T02:14:25.683Z,0.52
2023-04-19T02:15:25.756Z,0.52
2023-04-19T02:16:25.863Z,0.52
2023-04-19T02:17:25.922Z,0.51
2023-04-19T02:18:25.972Z,0.52
2023-04-19T02:19:26.057Z,0.52
2023-04-19T02:20:26.109Z,0.52
2023-04-19T02:21:26.204Z,0.51
2023-04-19T02:22:26.244Z,0.52
2023-04-19T02:23:26.329Z,0.52
2023-04-19T02:24:26.402Z,0.51
2023-04-19T02:25:26.476Z,0.51
2023-04-19T02:26:26.539Z,0.52
2023-04-19T02:27:26.620Z,0.52
2023-04-19T02:28:26.679Z,0.51
2023-04-19T02:29:26.754Z,0.52
2023-04-19T02:30:26.817Z,0.51
2023-04-19T02:31:26.972Z,0.52
2023-04-19T02:32:27.021Z,0.51
2023-04-19T02:33:27.084Z,0.51
2023-04-19T02:34:27.109Z,0.51
2023-04-19T02:35:27.171Z,0.51
2023-04-19T02:36:27.242Z,0.52
2023-04-19T02:37:27.326Z,0.52
2023-04-19T02:38:27.375Z,0.52
2023-04-19T02:39:27.452Z,0.51
2023-04-19T02:40:27.499Z,0.52
2023-04-19T02:41:27.639Z,0.52
2023-04-19T02:42:27.647Z,0.51
2023-04-19T02:43:27.734Z,0.52
2023-04-19T02:44:27.795Z,0.52
2023-04-19T02:45:27.866Z,0.51
2023-04-19T02:46:28.001Z,0.51
2023-04-19T02:47:28.032Z,0.51
2023-04-19T02:48:28.092Z,0.52
2023-04-19T02:49:28.163Z,0.51
2023-04-19T02:50:28.213Z,0.53
2023-04-19T02:51:28.273Z,0.51
2023-04-19T02:52:28.351Z,0.53
2023-04-19T02:53:28.444Z,0.52
2023-04-19T02:54:28.484Z,0.52
2023-04-19T02:55:28.557Z,0.51
2023-04-19T02:56:28.626Z,0.51
2023-04-19T02:57:28.707Z,0.51
2023-04-19T02:58:28.780Z,0.51
2023-04-19T02:59:28.872Z,0.52
2023-04-19T03:00:28.926Z,0.52
2023-04-19T03:01:29.015Z,0.51
2023-04-19T03:02:29.150Z,0.51
2023-04-19T03:03:29.226Z,0.52
2023-04-19T03:04:29.371Z,0.50
2023-04-19T03:05:29.323Z,0.52
2023-04-19T03:06:29.405Z,0.52
2023-04-19T03:07:29.413Z,0.52
2023-04-19T03:08:29.461Z,0.52
2023-04-19T03:09:29.470Z,0.53
2023-04-19T03:10:29.470Z,0.52
2023-04-19T03:11:29.510Z,0.53
2023-04-19T03:12:29.533Z,0.51
2023-04-19T03:13:29.597Z,0.53
2023-04-19T03:14:29.580Z,0.51
2023-04-19T03:15:29.587Z,0.51
2023-04-19T03:16:29.658Z,0.51
2023-04-19T03:17:29.687Z,0.51
2023-04-19T03:18:29.766Z,0.51
2023-04-19T03:19:29.852Z,0.52
2023-04-19T03:20:29.913Z,0.52
2023-04-19T03:21:30.002Z,0.52
2023-04-19T03:22:29.997Z,0.52
2023-04-19T03:23:30.012Z,0.52
2023-04-19T03:24:30.104Z,0.52
2023-04-19T03:25:30.051Z,0.52
2023-04-19T03:26:30.074Z,0.52
2023-04-19T03:27:30.108Z,0.50
2023-04-19T03:28:30.129Z,0.51
2023-04-19T03:29:30.222Z,0.52
2023-04-19T03:30:30.176Z,0.51
2023-04-19T03:31:30.258Z,0.53
2023-04-19T03:32:30.366Z,0.52
2023-04-19T03:33:30.384Z,0.53
2023-04-19T03:34:30.452Z,0.53
2023-04-19T03:35:30.523Z,0.52
2023-04-19T03:36:30.603Z,0.52
2023-04-19T03:37:30.680Z,0.51
2023-04-19T03:38:30.743Z,0.53
2023-04-19T03:39:30.809Z,0.52
2023-04-19T03:40:30.870Z,0.52
2023-04-19T03:41:30.970Z,0.52
2023-04-19T03:42:31.058Z,0.52
2023-04-19T03:43:31.128Z,0.51
2023-04-19T03:44:31.203Z,0.53
2023-04-19T03:45:31.272Z,0.52
2023-04-19T03:46:31.373Z,0.52
2023-04-19T03:47:31.369Z,0.52
2023-04-19T03:48:31.323Z,0.52
2023-04-19T03:49:31.357Z,0.53
2023-04-19T03:50:31.361Z,0.52
2023-04-19T03:51:31.388Z,0.52
2023-04-19T03:52:31.400Z,0.52
2023-04-19T03:53:31.740Z,0.52
2023-04-19T03:54:31.437Z,0.52
2023-04-19T03:55:31.492Z,0.53
2023-04-19T03:56:31.573Z,0.51
2023-04-19T03:57:31.641Z,0.51
2023-04-19T03:58:31.743Z,0.52
2023-04-19T03:59:31.839Z,0.52
2023-04-19T04:00:31.882Z,0.52
2023-04-19T04:01:31.937Z,0.52
2023-04-19T04:02:32.033Z,0.52
2023-04-19T04:03:32.118Z,0.51
2023-04-19T04:04:32.147Z,0.52
2023-04-19T04:05:32.129Z,0.53
2023-04-19T04:06:32.019Z,0.51
2023-04-19T04:07:32.035Z,0.52
2023-04-19T04:08:32.070Z,0.51
2023-04-19T04:09:33.073Z,0.51
2023-04-19T04:10:34.778Z,0.51
2023-04-19T04:11:32.126Z,0.52
2023-04-19T04:12:32.149Z,0.52
2023-04-19T04:13:32.166Z,0.53
2023-04-19T04:14:32.206Z,0.51
2023-04-19T04:15:32.215Z,0.52
2023-04-19T04:16:32.259Z,0.51
2023-04-19T04:17:32.315Z,0.52
2023-04-19T04:18:32.270Z,0.51
2023-04-19T04:19:32.305Z,0.52
2023-04-19T04:20:32.312Z,0.52
2023-04-19T04:21:32.343Z,0.52
2023-04-19T04:22:32.361Z,0.52
2023-04-19T04:23:32.384Z,0.52
2023-04-19T04:24:32.411Z,0.51
2023-04-19T04:25:32.433Z,0.52
2023-04-19T04:26:32.460Z,0.52
2023-04-19T04:27:32.488Z,0.52
2023-04-19T04:28:32.530Z,0.52
2023-04-19T04:29:32.552Z,0.52
2023-04-19T04:30:32.580Z,0.52
2023-04-19T04:31:32.639Z,0.53
2023-04-19T04:32:32.655Z,0.52
2023-04-19T04:33:32.663Z,0.52
2023-04-19T04:34:32.690Z,0.52
2023-04-19T04:35:34.267Z,0.52
2023-04-19T04:36:32.726Z,0.52
2023-04-19T04:37:32.746Z,0.52
2023-04-19T04:38:32.770Z,0.53
2023-04-19T04:39:32.802Z,0.52
2023-04-19T04:40:32.836Z,0.52
2023-04-19T04:41:32.839Z,0.52
2023-04-19T04:42:32.870Z,0.52
2023-04-19T04:43:32.893Z,0.52
2023-04-19T04:44:32.923Z,0.51
2023-04-19T04:45:32.953Z,0.52
2023-04-19T04:46:32.954Z,0.52
2023-04-19T04:47:33.019Z,0.51
2023-04-19T04:48:33.039Z,0.51
2023-04-19T04:49:33.029Z,0.52
2023-04-19T04:50:33.076Z,0.53
2023-04-19T04:51:33.100Z,0.52
2023-04-19T04:52:33.121Z,0.52
2023-04-19T04:53:33.135Z,0.52
2023-04-19T04:54:33.163Z,0.52
2023-04-19T04:55:33.189Z,0.53
2023-04-19T04:56:33.235Z,0.52
2023-04-19T04:57:33.205Z,0.52
2023-04-19T04:58:33.215Z,0.52
2023-04-19T04:59:33.243Z,0.52
2023-04-19T05:00:33.253Z,0.53
2023-04-19T05:01:33.799Z,0.53
2023-04-19T05:02:33.383Z,0.52
2023-04-19T05:03:33.416Z,0.52
2023-04-19T05:04:33.509Z,0.52
2023-04-19T05:05:33.552Z,0.52
2023-04-19T05:06:33.637Z,0.53
2023-04-19T05:07:33.649Z,0.52
2023-04-19T05:08:33.672Z,0.52
2023-04-19T05:09:33.708Z,0.52
2023-04-19T05:10:33.709Z,0.53
2023-04-19T05:11:33.730Z,0.52
2023-04-19T05:12:33.753Z,0.52
2023-04-19T05:13:33.787Z,0.52
2023-04-19T05:14:33.791Z,0.52
2023-04-19T05:15:33.818Z,0.52
2023-04-19T05:16:33.860Z,0.52
2023-04-19T05:17:33.873Z,0.53
2023-04-19T05:18:33.906Z,0.53
2023-04-19T05:19:33.905Z,0.52
2023-04-19T05:20:33.929Z,0.52
2023-04-19T05:21:33.945Z,0.52
2023-04-19T05:22:34.777Z,0.52
2023-04-19T05:23:34.782Z,0.53
2023-04-19T05:24:34.018Z,0.53
2023-04-19T05:25:34.040Z,0.54
2023-04-19T05:26:34.051Z,0.58
2023-04-19T05:27:34.076Z,0.58
2023-04-19T05:28:34.116Z,0.60
2023-04-19T05:29:34.120Z,0.61
2023-04-19T05:30:34.134Z,0.60
2023-04-19T05:31:35.276Z,0.62
2023-04-19T05:32:34.318Z,0.62
2023-04-19T05:33:34.326Z,0.62
2023-04-19T05:34:34.407Z,0.61
2023-04-19T05:35:34.470Z,0.62
2023-04-19T05:36:34.530Z,0.64
2023-04-19T05:37:34.581Z,0.62
2023-04-19T05:38:34.647Z,0.63
2023-04-19T05:39:34.739Z,0.63
2023-04-19T05:40:34.672Z,0.63
2023-04-19T05:41:34.704Z,0.64
2023-04-19T05:42:34.720Z,0.64
2023-04-19T05:43:34.744Z,0.64
2023-04-19T05:44:34.764Z,0.66
2023-04-19T05:45:34.785Z,0.65
2023-04-19T05:46:34.863Z,0.67
2023-04-19T05:47:34.846Z,0.67
2023-04-19T05:48:34.851Z,0.69
2023-04-19T05:49:34.870Z,0.67
2023-04-19T05:50:34.900Z,0.67
2023-04-19T05:51:34.910Z,0.67
2023-04-19T05:52:34.938Z,0.68
2023-04-19T05:53:34.974Z,0.68
2023-04-19T05:54:35.755Z,0.69
2023-04-19T05:55:35.056Z,0.69
2023-04-19T05:56:35.031Z,0.68
2023-04-19T05:57:35.054Z,0.69
2023-04-19T05:58:35.086Z,0.68
2023-04-19T05:59:35.146Z,0.68
2023-04-19T06:00:35.151Z,0.68
2023-04-19T06:01:35.178Z,0.69
2023-04-19T06:02:35.405Z,0.69
2023-04-19T06:03:35.491Z,0.70
2023-04-19T06:04:35.542Z,0.68
2023-04-19T06:05:35.473Z,0.70
2023-04-19T06:06:35.510Z,0.69
2023-04-19T06:07:40.115Z,0.70
2023-04-19T06:08:36.745Z,0.70
2023-04-19T06:09:35.684Z,0.71
2023-04-19T06:10:51.372Z,0.71
2023-04-19T06:11:43.161Z,0.70
2023-04-19T06:12:36.800Z,0.70
2023-04-19T06:13:35.711Z,0.71
2023-04-19T06:14:35.737Z,0.72
2023-04-19T06:15:35.772Z,0.72
2023-04-19T06:16:35.797Z,0.76
2023-04-19T06:17:35.853Z,0.75
2023-04-19T06:18:35.858Z,0.75
2023-04-19T06:19:35.862Z,0.76
2023-04-19T06:20:35.876Z,0.74
2023-04-19T06:21:35.894Z,0.75
2023-04-19T06:22:35.920Z,0.75
2023-04-19T06:23:35.939Z,0.76
2023-04-19T06:24:35.999Z,0.76
2023-04-19T06:25:36.125Z,0.76
2023-04-19T06:26:36.790Z,0.75
2023-04-19T06:27:36.181Z,0.76
2023-04-19T06:28:36.264Z,0.80
2023-04-19T06:29:36.311Z,0.84
2023-04-19T06:30:36.368Z,0.83
2023-04-19T06:31:36.471Z,0.88
2023-04-19T06:32:38.270Z,0.86
2023-04-19T06:33:36.611Z,0.86
2023-04-19T06:34:36.629Z,0.87
2023-04-19T06:35:36.650Z,0.84
2023-04-19T06:36:36.670Z,0.79
2023-04-19T06:37:36.752Z,0.76
2023-04-19T06:38:36.749Z,0.69
2023-04-19T06:39:36.764Z,0.67
2023-04-19T06:40:36.814Z,0.66
2023-04-19T06:41:38.815Z,0.62
2023-04-19T06:42:37.858Z,0.62
2023-04-19T06:43:36.907Z,0.59
2023-04-19T06:44:36.921Z,0.50
2023-04-19T06:45:36.950Z,0.37
2023-04-19T06:46:36.977Z,0.34
2023-04-19T06:47:37.088Z,0.44
2023-04-19T06:48:37.119Z,0.44
2023-04-19T06:49:37.134Z,0.45
2023-04-19T06:50:37.100Z,0.45
2023-04-19T06:51:37.189Z,0.45
2023-04-19T06:52:37.197Z,0.46
2023-04-19T06:53:38.043Z,0.49
2023-04-19T06:54:37.314Z,0.45
2023-04-19T06:55:37.273Z,0.55
2023-04-19T06:56:37.296Z,0.60
2023-04-19T06:57:37.314Z,0.57
2023-04-19T06:58:38.333Z,0.53
2023-04-19T06:59:37.360Z,0.55
2023-04-19T07:00:40.826Z,0.56
2023-04-19T07:01:37.495Z,0.59
2023-04-19T07:02:37.612Z,0.59
2023-04-19T07:03:37.551Z,0.61
2023-04-19T07:04:37.970Z,0.62
2023-04-19T07:05:37.486Z,0.63
2023-04-19T07:06:37.503Z,0.63
2023-04-19T07:07:37.512Z,0.64
2023-04-19T07:08:49.311Z,0.66
2023-04-19T07:09:38.598Z,0.63
2023-04-19T07:10:37.558Z,0.64
2023-04-19T07:11:37.587Z,0.67
2023-04-19T07:12:37.582Z,0.71
2023-04-19T07:13:42.473Z,0.80
2023-04-19T07:14:39.326Z,0.63
2023-04-19T07:15:39.332Z,0.65
2023-04-19T07:16:37.614Z,0.63
2023-04-19T07:17:37.707Z,0.66
2023-04-19T07:18:37.662Z,0.72
2023-04-19T07:19:37.657Z,0.83
2023-04-19T07:20:37.669Z,1.01
2023-04-19T07:21:37.683Z,1.10
2023-04-19T07:22:40.340Z,1.17
2023-04-19T07:23:37.940Z,1.17
2023-04-19T07:24:38.035Z,1.18
2023-04-19T07:25:37.978Z,1.23
2023-04-19T07:26:37.992Z,1.34
2023-04-19T07:27:38.021Z,1.50
2023-04-19T07:28:40.838Z,1.55
2023-04-19T07:29:38.044Z,1.66
2023-04-19T07:30:38.817Z,1.76
2023-04-19T07:31:38.224Z,1.87
2023-04-19T07:32:38.196Z,1.92
2023-04-19T07:33:38.054Z,2.01
2023-04-19T07:34:38.079Z,2.10
2023-04-19T07:35:38.066Z,2.18
2023-04-19T07:36:38.822Z,2.19
2023-04-19T07:37:38.819Z,2.22
2023-04-19T07:38:38.087Z,2.29
2023-04-19T07:39:38.148Z,2.41
2023-04-19T07:40:38.083Z,2.66
2023-04-19T07:41:38.089Z,2.79
2023-04-19T07:42:38.083Z,2.84
2023-04-19T07:43:39.259Z,2.97
2023-04-19T07:44:38.084Z,3.08
2023-04-19T07:45:38.377Z,3.20
2023-04-19T07:46:38.154Z,3.25
2023-04-19T07:47:38.174Z,3.38
2023-04-19T07:48:38.084Z,3.47
2023-04-19T07:49:38.149Z,3.62
2023-04-19T07:50:38.204Z,3.82
2023-04-19T07:51:38.228Z,3.89
2023-04-19T07:52:38.462Z,4.05
2023-04-19T07:53:38.359Z,4.11
2023-04-19T07:54:38.376Z,4.24
2023-04-19T07:55:38.445Z,4.36
2023-04-19T07:56:40.484Z,4.56
2023-04-19T07:57:38.604Z,4.79
2023-04-19T07:58:38.591Z,4.89
2023-04-19T07:59:38.635Z,5.10
2023-04-19T08:00:38.882Z,5.17
2023-04-19T08:01:40.487Z,5.48
2023-04-19T08:02:38.973Z,5.58
2023-04-19T08:03:39.034Z,5.77
2023-04-19T08:04:39.159Z,5.87
2023-04-19T08:05:39.033Z,6.16
2023-04-19T08:06:39.054Z,6.21
2023-04-19T08:07:39.117Z,6.45
2023-04-19T08:08:40.116Z,6.47
2023-04-19T08:09:39.351Z,6.54
2023-04-19T08:10:39.121Z,6.65
2023-04-19T08:11:39.117Z,7.09
2023-04-19T08:12:47.274Z,8.12
2023-04-19T08:13:40.517Z,6.51
2023-04-19T08:14:56.416Z,6.63
2023-04-19T08:16:20.528Z,6.49
2023-04-19T08:17:06.450Z,6.49
2023-04-19T08:17:42.408Z,6.48
2023-04-19T08:18:39.417Z,6.49
2023-04-19T08:19:39.435Z,6.36
2023-04-19T08:20:39.434Z,5.73
2023-04-19T08:21:41.438Z,5.61
2023-04-19T08:22:39.452Z,5.64
2023-04-19T08:23:48.023Z,5.15
2023-04-19T08:24:41.335Z,5.54
2023-04-19T08:25:39.485Z,5.02
2023-04-19T08:26:40.478Z,5.17
2023-04-19T08:27:39.479Z,4.84
2023-04-19T08:28:41.336Z,4.91
2023-04-19T08:29:40.372Z,4.88
2023-04-19T08:30:39.507Z,5.44
2023-04-19T08:31:39.538Z,5.38
2023-04-19T08:32:39.559Z,5.38
2023-04-19T08:33:39.525Z,5.57
2023-04-19T08:34:39.502Z,6.15
2023-04-19T08:35:39.512Z,6.04
2023-04-19T08:36:48.378Z,6.45
2023-04-19T08:37:43.915Z,6.46
2023-04-19T08:38:39.484Z,6.47
2023-04-19T08:39:41.383Z,6.51
2023-04-19T08:40:39.493Z,6.55
2023-04-19T08:41:39.504Z,6.64
2023-04-19T08:42:39.494Z,6.80
2023-04-19T08:43:40.572Z,7.08
2023-04-19T08:44:51.019Z,7.09
2023-04-19T08:45:40.554Z,7.10
2023-04-19T08:46:39.502Z,7.17
2023-04-19T08:48:39.621Z,7.38
2023-04-19T08:49:41.966Z,7.65
2023-04-19T08:50:48.768Z,7.11
2023-04-19T08:51:40.525Z,7.13
2023-04-19T08:52:51.810Z,7.23
2023-04-19T08:53:40.515Z,7.12
2023-04-19T08:54:39.521Z,7.23
2023-04-19T08:55:40.503Z,7.13
2023-04-19T08:56:40.524Z,7.13
2023-04-19T08:57:39.867Z,7.25
2023-04-19T08:58:56.835Z,7.45
2023-04-19T08:59:40.499Z,7.13
2023-04-19T09:00:39.495Z,7.27
2023-04-19T09:01:44.382Z,7.52
2023-04-19T09:02:39.660Z,7.13
2023-04-19T09:03:55.505Z,7.30
2023-04-19T09:04:40.784Z,7.14
2023-04-19T09:05:39.957Z,7.32
2023-04-19T09:06:39.812Z,7.59
2023-04-19T09:07:40.466Z,7.14
2023-04-19T09:08:39.467Z,7.28
2023-04-19T09:09:48.767Z,7.61
2023-04-19T09:10:40.870Z,7.14
2023-04-19T09:11:39.440Z,7.33
2023-04-19T09:12:39.426Z,7.63
2023-04-19T09:13:40.373Z,7.95
2023-04-19T09:14:41.430Z,8.63
2023-04-19T09:15:39.475Z,7.13
2023-04-19T09:16:40.278Z,7.31
2023-04-19T09:17:39.445Z,7.56
2023-04-19T09:18:48.798Z,7.79
2023-04-19T09:19:40.435Z,7.13
2023-04-19T09:20:39.459Z,7.24
2023-04-19T09:21:39.469Z,7.41
2023-04-19T09:22:39.446Z,7.53
2023-04-19T09:23:39.440Z,7.72
2023-04-19T09:25:55.037Z,7.84
2023-04-19T09:26:39.456Z,7.85
2023-04-19T09:27:39.454Z,7.79
2023-04-19T09:28:39.457Z,7.52
2023-04-19T09:29:39.468Z,7.47
2023-04-19T09:30:50.129Z,7.29
2023-04-19T09:31:50.943Z,7.60
2023-04-19T09:32:40.552Z,7.84
2023-04-19T09:33:39.575Z,7.76
2023-04-19T09:34:39.498Z,7.30
2023-04-19T09:35:39.509Z,7.06
2023-04-19T09:36:39.517Z,6.95
2023-04-19T09:38:40.522Z,6.82
2023-04-19T09:39:40.515Z,6.82
2023-04-19T09:40:39.515Z,6.86
2023-04-19T09:41:41.441Z,6.81
2023-04-19T09:42:55.482Z,6.81
2023-04-19T09:45:09.529Z,6.81
2023-04-19T09:45:40.556Z,6.82
2023-04-19T09:46:39.630Z,6.74
2023-04-19T09:47:39.624Z,6.40
2023-04-19T09:48:39.627Z,6.22
2023-04-19T09:49:48.529Z,6.14
2023-04-19T09:50:53.658Z,6.34
2023-04-19T09:51:40.604Z,6.78
2023-04-19T09:52:39.603Z,6.39
2023-04-19T09:53:39.614Z,6.61
2023-04-19T09:54:39.616Z,6.07
2023-04-19T09:55:48.949Z,5.89
2023-04-19T09:56:40.682Z,6.14
2023-04-19T09:57:39.653Z,5.80
2023-04-19T09:58:51.347Z,5.59
2023-04-19T09:59:40.678Z,5.85
2023-04-19T10:01:39.711Z,5.52
2023-04-19T10:02:39.881Z,5.40
2023-04-19T10:03:39.865Z,5.39
2023-04-19T10:05:39.902Z,5.21
2023-04-19T10:06:58.515Z,5.20
2023-04-19T10:07:40.905Z,5.21
2023-04-19T10:08:39.829Z,5.22
2023-04-19T10:09:51.804Z,5.13
2023-04-19T10:10:42.332Z,5.21
2023-04-19T10:11:40.121Z,5.21
2023-04-19T10:13:40.905Z,5.21
2023-04-19T10:14:39.912Z,5.01
2023-04-19T10:15:50.090Z,4.89
2023-04-19T10:16:40.993Z,5.20
2023-04-19T10:17:40.096Z,5.00
2023-04-19T10:18:39.994Z,4.85
2023-04-19T10:19:40.017Z,4.70
2023-04-19T10:20:40.035Z,4.67
2023-04-19T10:21:40.049Z,4.55
2023-04-19T10:22:41.920Z,4.41
2023-04-19T10:23:40.143Z,4.42
2023-04-19T10:24:40.621Z,4.45
2023-04-19T10:25:40.107Z,4.48
2023-04-19T10:26:40.127Z,4.40
2023-04-19T10:27:40.555Z,4.37
2023-04-19T10:28:40.201Z,4.30
2023-04-19T10:29:40.806Z,4.24
2023-04-19T10:30:40.295Z,4.19
2023-04-19T10:31:41.839Z,4.19
2023-04-19T10:32:40.249Z,4.17
2023-04-19T10:33:40.243Z,4.13
2023-04-19T10:34:40.275Z,4.10
2023-04-19T10:35:40.292Z,4.08
2023-04-19T10:36:40.285Z,4.00
2023-04-19T10:37:40.299Z,3.98
2023-04-19T10:38:40.351Z,3.94
2023-04-19T10:39:40.356Z,4.00
2023-04-19T10:40:40.393Z,3.86
2023-04-19T10:41:40.385Z,3.86
2023-04-19T10:42:40.375Z,3.87
2023-04-19T10:43:40.400Z,3.86
2023-04-19T10:44:40.406Z,3.86
2023-04-19T10:45:41.443Z,3.87
2023-04-19T10:46:40.518Z,3.87
2023-04-19T10:47:40.466Z,3.80
2023-04-19T10:48:40.456Z,3.86
2023-04-19T10:49:40.469Z,3.78
2023-04-19T10:50:40.509Z,3.79
2023-04-19T10:51:40.483Z,3.64
2023-04-19T10:52:40.500Z,3.62
2023-04-19T10:53:40.503Z,3.74
2023-04-19T10:54:40.544Z,3.61
2023-04-19T10:55:40.528Z,3.82
2023-04-19T10:56:40.533Z,3.60
2023-04-19T10:57:40.540Z,3.54
2023-04-19T10:58:41.038Z,3.68
2023-04-19T10:59:40.569Z,3.60
2023-04-19T11:00:40.620Z,3.72
2023-04-19T11:01:40.888Z,3.52
2023-04-19T11:02:41.023Z,3.45
2023-04-19T11:03:40.749Z,3.43
2023-04-19T11:04:41.487Z,3.42
2023-04-19T11:05:40.596Z,3.39
2023-04-19T11:06:40.615Z,3.32
2023-04-19T11:07:40.614Z,3.38
2023-04-19T11:08:40.625Z,3.21
2023-04-19T11:09:40.642Z,3.26
2023-04-19T11:10:40.748Z,3.26
2023-04-19T11:11:40.656Z,3.27
2023-04-19T11:12:40.675Z,3.26
2023-04-19T11:13:40.680Z,3.26
2023-04-19T11:14:40.664Z,3.27
2023-04-19T11:15:40.696Z,3.24
2023-04-19T11:16:45.997Z,3.24
2023-04-19T11:17:41.757Z,3.26
2023-04-19T11:18:41.399Z,3.26
2023-04-19T11:19:40.710Z,3.19
2023-04-19T11:20:40.771Z,3.26
2023-04-19T11:21:40.736Z,3.26
2023-04-19T11:22:40.754Z,3.15
2023-04-19T11:23:40.731Z,3.13
2023-04-19T11:24:40.732Z,3.09
2023-04-19T11:25:42.413Z,3.12
2023-04-19T11:26:40.755Z,3.07
2023-04-19T11:27:40.758Z,3.01
2023-04-19T11:28:40.769Z,3.08
2023-04-19T11:29:40.780Z,2.96
2023-04-19T11:30:40.788Z,3.05
2023-04-19T11:31:40.814Z,3.05
2023-04-19T11:32:40.846Z,3.03
2023-04-19T11:33:40.814Z,2.96
2023-04-19T11:34:40.817Z,2.94
2023-04-19T11:35:40.820Z,2.96
2023-04-19T11:36:40.845Z,2.99
2023-04-19T11:37:40.844Z,3.00
2023-04-19T11:38:40.854Z,2.97
2023-04-19T11:39:40.880Z,2.94
2023-04-19T11:40:40.881Z,2.89
2023-04-19T11:41:40.959Z,2.87
2023-04-19T11:42:41.090Z,2.82
2023-04-19T11:43:40.912Z,2.84
2023-04-19T11:44:41.011Z,2.83
2023-04-19T11:45:41.072Z,2.82
2023-04-19T11:46:41.038Z,2.82
2023-04-19T11:47:40.987Z,2.78
2023-04-19T11:48:40.954Z,2.75
2023-04-19T11:49:40.975Z,2.75
2023-04-19T11:50:40.961Z,2.76
2023-04-19T11:51:40.983Z,2.76
2023-04-19T11:52:41.107Z,2.76
2023-04-19T11:53:41.012Z,2.73
2023-04-19T11:54:41.002Z,2.75
2023-04-19T11:55:41.010Z,2.75
2023-04-19T11:56:41.022Z,2.76
2023-04-19T11:57:41.731Z,2.76
2023-04-19T11:58:41.056Z,2.75
2023-04-19T11:59:42.070Z,2.75
2023-04-19T12:00:41.997Z,2.76
2023-04-19T12:01:41.256Z,2.75
2023-04-19T12:02:41.256Z,2.70
2023-04-19T12:03:41.331Z,2.69
2023-04-19T12:04:41.322Z,2.75
2023-04-19T12:05:41.208Z,2.71
2023-04-19T12:06:41.151Z,2.69
2023-04-19T12:07:42.958Z,2.65
2023-04-19T12:08:41.182Z,2.65
2023-04-19T12:09:42.949Z,2.65
2023-04-19T12:10:41.222Z,2.66
2023-04-19T12:11:41.431Z,2.66
2023-04-19T12:12:41.261Z,2.64
2023-04-19T12:13:41.931Z,2.57
2023-04-19T12:14:41.294Z,2.57
2023-04-19T12:15:41.308Z,2.50
2023-04-19T12:16:41.420Z,2.51
2023-04-19T12:17:54.611Z,2.50
2023-04-19T12:18:42.349Z,2.51
2023-04-19T12:19:41.362Z,2.51
2023-04-19T12:20:41.390Z,2.52
2023-04-19T12:21:41.413Z,2.51
2023-04-19T12:22:41.419Z,2.52
2023-04-19T12:23:41.480Z,2.51
2023-04-19T12:24:41.449Z,2.51
2023-04-19T12:25:41.461Z,2.51
2023-04-19T12:26:41.483Z,2.52
2023-04-19T12:27:42.433Z,2.51
2023-04-19T12:28:41.492Z,2.43
2023-04-19T12:29:41.536Z,2.44
2023-04-19T12:30:41.516Z,2.41
2023-04-19T12:31:41.956Z,2.37
2023-04-19T12:32:41.693Z,2.37
2023-04-19T12:33:41.565Z,2.31
2023-04-19T12:34:41.581Z,2.35
2023-04-19T12:35:41.596Z,2.35
2023-04-19T12:36:41.615Z,2.36
2023-04-19T12:37:41.626Z,2.37
2023-04-19T12:38:41.669Z,2.34
2023-04-19T12:39:41.659Z,2.30
2023-04-19T12:40:41.674Z,2.36
2023-04-19T12:41:41.694Z,2.30
2023-04-19T12:42:41.702Z,2.29
2023-04-19T12:43:41.715Z,2.27
2023-04-19T12:44:41.728Z,2.26
2023-04-19T12:45:41.766Z,2.26
2023-04-19T12:46:41.765Z,2.27
2023-04-19T12:47:41.792Z,2.26
2023-04-19T12:48:41.768Z,2.26
2023-04-19T12:49:41.777Z,2.27
2023-04-19T12:50:43.425Z,2.26
2023-04-19T12:51:41.806Z,2.25
2023-04-19T12:52:41.815Z,2.26
2023-04-19T12:53:41.831Z,2.23
2023-04-19T12:54:43.431Z,2.20
2023-04-19T12:55:41.845Z,2.21
2023-04-19T12:56:41.863Z,2.21
2023-04-19T12:57:41.870Z,2.22
2023-04-19T12:58:41.881Z,2.19
2023-04-19T12:59:41.875Z,2.21
2023-04-19T13:00:41.914Z,2.19
2023-04-19T13:01:41.939Z,2.19
2023-04-19T13:02:41.980Z,2.20
2023-04-19T13:03:42.014Z,2.19
2023-04-19T13:04:42.033Z,2.20
2023-04-19T13:05:41.940Z,2.17
2023-04-19T13:06:41.959Z,2.15
2023-04-19T13:07:41.957Z,2.13
2023-04-19T13:08:45.380Z,2.12
2023-04-19T13:09:41.981Z,2.12
2023-04-19T13:10:41.999Z,2.13
2023-04-19T13:11:42.028Z,2.12
2023-04-19T13:12:42.018Z,2.13
2023-04-19T13:13:42.942Z,2.12
2023-04-19T13:14:42.035Z,2.12
2023-04-19T13:15:42.118Z,2.13
2023-04-19T13:16:42.076Z,2.14
2023-04-19T13:17:42.078Z,2.14
2023-04-19T13:18:42.084Z,2.11
2023-04-19T13:19:42.082Z,2.12
2023-04-19T13:20:42.096Z,2.10
2023-04-19T13:21:42.110Z,2.10
2023-04-19T13:22:42.113Z,2.06
2023-04-19T13:23:42.144Z,2.06
2023-04-19T13:24:42.150Z,2.06
2023-04-19T13:25:42.139Z,2.07